New Castle, Delaware
Current Conditions -  °F | °C
As of 1:51 PM on Friday 28 Nov 2014 (Local Time) from KILG Reporting Station
Scattered Clouds Scattered Clouds  
Wind Chill: 27°   Ceiling: Unl
Heat Index: 37°   Visibility: 10mi
Dew Point: 15°   Wind: 20mph
Humidity: 41%   Direction: 310°NW
Pressure: 30.23"   Gusts: 29mph
Location:  39.67°N, 75.57°W
Report Text: KILG 281851Z 31017G25KT 10SM SCT050 03/M09 A3023 RMK AO2 SLP239 T00281094
Loading
Personal Weather Stations






























Interactive Weather Map New forecast layout! Learn more

10-Day Weather Forecast

Advertisements
Track Severe Weather on mobile